Time;durP1;ratioP1;P1;durP2;ratioP2;P2;SDS_P1;SDS_P2;PMS_P1;PMS_P2;Temp;Humidity;BMP_temperature;BMP_pressure;BME280_temperature;BME280_humidity;BME280_pressure;Samples;Min_cycle;Max_cycle;Signal;HPM_P1;HPM_P2
2023/04/15 00:02:25;;;;;;;27.65;8.32;;;11.70;81.30;;;;;;5053916;28;20032;-74
2023/04/15 00:04:51;;;;;;;28.60;8.77;;;11.70;81.30;;;;;;5053860;28;20037;-74
2023/04/15 00:07:16;;;;;;;26.15;9.20;;;11.70;81.50;;;;;;5053367;28;20111;-73
2023/04/15 00:09:43;;;;;;;38.15;11.65;;;11.70;81.70;;;;;;5053860;28;20459;-75
2023/04/15 00:12:10;;;;;;;23.45;9.07;;;11.70;81.80;;;;;;5053640;28;20045;-73
2023/04/15 00:14:35;;;;;;;29.42;9.43;;;11.70;82.00;;;;;;5053502;28;20033;-74
2023/04/15 00:17:02;;;;;;;23.70;8.75;;;11.70;81.90;;;;;;5053602;28;20055;-73
2023/04/15 00:19:28;;;;;;;26.98;9.18;;;11.70;81.90;;;;;;5035427;28;20029;-74
2023/04/15 00:21:54;;;;;;;31.38;8.88;;;11.70;82.10;;;;;;5053185;28;20107;-74
2023/04/15 00:24:20;;;;;;;30.40;8.57;;;11.70;82.30;;;;;;5053067;28;20113;-74
2023/04/15 00:26:46;;;;;;;23.80;8.63;;;11.70;82.60;;;;;;5053819;28;20075;-73
2023/04/15 00:29:12;;;;;;;26.20;8.63;;;11.60;82.50;;;;;;5053575;28;20036;-74
2023/04/15 00:31:38;;;;;;;25.05;8.05;;;11.70;82.90;;;;;;5052718;28;20521;-73
2023/04/15 00:34:03;;;;;;;25.25;8.40;;;11.70;82.90;;;;;;5052839;28;20041;-74
2023/04/15 00:36:30;;;;;;;29.00;8.20;;;11.70;83.30;;;;;;5035252;28;20037;-73
2023/04/15 00:38:56;;;;;;;29.40;8.07;;;11.80;83.60;;;;;;5053383;28;20387;-73
2023/04/15 00:41:22;;;;;;;35.35;7.65;;;11.70;83.30;;;;;;5052689;28;20037;-73
2023/04/15 00:43:48;;;;;;;29.88;7.80;;;11.80;83.20;;;;;;5034948;28;20041;-75
2023/04/15 00:46:16;;;;;;;23.75;7.80;;;11.80;83.50;;;;;;5035308;28;20029;-74
2023/04/15 00:48:42;;;;;;;21.55;7.72;;;11.80;83.50;;;;;;5052574;28;20037;-74
2023/04/15 00:51:08;;;;;;;28.65;7.90;;;11.80;83.50;;;;;;5052824;28;20132;-73
2023/04/15 00:53:34;;;;;;;32.97;8.13;;;11.80;83.40;;;;;;5053307;28;20120;-74
2023/04/15 00:56:00;;;;;;;22.27;8.30;;;11.80;83.50;;;;;;5052352;28;20376;-74
2023/04/15 00:58:26;;;;;;;22.10;7.53;;;11.80;83.60;;;;;;5052809;28;20033;-74
2023/04/15 01:00:54;;;;;;;23.38;8.10;;;11.80;83.80;;;;;;5052516;28;20040;-74
2023/04/15 01:03:20;;;;;;;21.90;7.03;;;11.80;83.90;;;;;;5052694;28;20477;-73
2023/04/15 01:05:46;;;;;;;24.58;7.45;;;11.80;83.90;;;;;;5052635;28;20097;-74
2023/04/15 01:08:11;;;;;;;27.52;7.75;;;11.80;83.90;;;;;;5052604;28;20405;-73
2023/04/15 01:10:38;;;;;;;25.92;7.53;;;11.80;84.10;;;;;;5034889;28;20483;-74
2023/04/15 01:13:04;;;;;;;24.90;5.45;;;11.80;84.10;;;;;;5052637;28;20475;-73
2023/04/15 01:15:30;;;;;;;19.60;5.07;;;11.80;84.20;;;;;;5052503;28;20056;-73
2023/04/15 01:18:01;;;;;;;21.67;5.15;;;11.80;84.20;;;;;;5052209;28;20037;-73
2023/04/15 01:20:28;;;;;;;20.83;5.95;;;11.80;84.10;;;;;;5052424;28;20087;-73
2023/04/15 01:22:54;;;;;;;23.65;4.95;;;11.80;84.30;;;;;;5034693;28;20078;-74
2023/04/15 01:25:32;;;;;;;26.77;4.32;;;11.80;84.20;;;;;;5052413;28;20061;-73
2023/04/15 01:27:58;;;;;;;22.40;3.95;;;11.80;83.50;;;;;;5052191;28;20037;-74
2023/04/15 01:30:24;;;;;;;19.27;4.22;;;11.80;83.80;;;;;;5052287;28;20075;-72
2023/04/15 01:32:50;;;;;;;23.60;3.30;;;11.80;83.60;;;;;;5052091;28;20120;-73
2023/04/15 01:35:17;;;;;;;19.73;3.92;;;11.80;83.40;;;;;;5052185;28;20037;-74
2023/04/15 01:37:42;;;;;;;18.80;3.67;;;11.80;82.70;;;;;;5052133;28;20025;-72
2023/04/15 01:40:08;;;;;;;23.05;3.67;;;11.80;82.20;;;;;;5051826;28;20059;-73
2023/04/15 01:42:35;;;;;;;11.43;2.90;;;11.80;81.90;;;;;;5052248;28;20029;-73
2023/04/15 01:45:01;;;;;;;18.95;3.30;;;11.80;81.60;;;;;;5052064;28;20556;-74
2023/04/15 01:47:27;;;;;;;23.92;4.03;;;11.80;81.70;;;;;;5051981;28;20702;-72
2023/04/15 01:49:53;;;;;;;17.80;2.92;;;11.80;81.40;;;;;;5051989;28;20053;-74
2023/04/15 01:52:19;;;;;;;14.70;3.22;;;11.80;81.00;;;;;;5033969;28;20045;-73
2023/04/15 01:54:44;;;;;;;15.68;3.10;;;11.80;80.90;;;;;;5054124;28;20471;-71
2023/04/15 01:57:10;;;;;;;16.50;3.63;;;11.80;80.40;;;;;;5055928;28;20040;-72
2023/04/15 01:59:36;;;;;;;19.73;3.53;;;11.80;80.30;;;;;;5055626;28;20187;-72
2023/04/15 02:02:01;;;;;;;14.95;3.30;;;11.90;80.10;;;;;;5055761;28;20458;-73
2023/04/15 02:04:27;;;;;;;18.42;3.40;;;11.90;79.90;;;;;;5055809;28;20037;-72
2023/04/15 02:06:53;;;;;;;18.25;4.22;;;11.90;79.70;;;;;;5055907;28;20039;-72
2023/04/15 02:09:19;;;;;;;13.65;3.35;;;11.90;79.70;;;;;;5055559;28;20033;-72
2023/04/15 02:11:45;;;;;;;13.88;3.33;;;11.90;79.70;;;;;;5057020;28;20033;-74
2023/04/15 02:14:10;;;;;;;18.05;3.50;;;11.90;79.80;;;;;;5056220;28;20504;-74
2023/04/15 02:16:36;;;;;;;9.13;2.83;;;11.90;79.90;;;;;;5056148;28;20125;-74
2023/04/15 02:19:02;;;;;;;12.88;2.72;;;11.90;80.00;;;;;;5055804;28;20044;-74
2023/04/15 02:21:29;;;;;;;16.20;3.00;;;12.00;79.70;;;;;;5056088;28;20033;-73
2023/04/15 02:23:55;;;;;;;14.88;3.70;;;12.00;79.90;;;;;;5055553;28;20052;-75
2023/04/15 02:26:21;;;;;;;19.80;3.58;;;12.00;79.70;;;;;;5055760;28;20059;-71
2023/04/15 02:28:47;;;;;;;18.05;4.20;;;12.00;79.30;;;;;;5055377;28;20036;-74
2023/04/15 02:31:13;;;;;;;13.43;3.13;;;12.00;79.20;;;;;;5055583;28;20058;-74
2023/04/15 02:33:39;;;;;;;16.90;3.70;;;12.00;79.50;;;;;;5055464;28;20375;-73
2023/04/15 02:36:07;;;;;;;15.48;3.22;;;12.00;79.50;;;;;;5055187;28;20029;-74
2023/04/15 02:38:33;;;;;;;20.02;3.20;;;12.10;79.70;;;;;;5055214;28;20041;-73
2023/04/15 02:40:58;;;;;;;19.17;4.18;;;12.10;79.60;;;;;;5037562;28;20037;-73
2023/04/15 02:43:24;;;;;;;14.82;3.00;;;12.10;79.30;;;;;;5037389;28;20410;-73
2023/04/15 02:45:50;;;;;;;15.70;3.25;;;12.10;79.20;;;;;;5037178;28;20063;-74
2023/04/15 02:48:18;;;;;;;22.75;3.90;;;12.20;79.20;;;;;;5055228;28;20029;-72
2023/04/15 02:50:44;;;;;;;12.82;3.30;;;12.20;79.10;;;;;;5054938;28;20032;-72
2023/04/15 02:53:10;;;;;;;17.02;3.53;;;12.20;79.30;;;;;;5054967;28;20521;-74
2023/04/15 02:55:36;;;;;;;15.23;3.20;;;12.20;79.50;;;;;;5036965;28;20029;-72
2023/04/15 02:58:02;;;;;;;21.13;3.60;;;12.20;79.50;;;;;;5036976;28;20436;-74
2023/04/15 03:00:27;;;;;;;17.20;3.08;;;12.30;80.00;;;;;;5054810;28;20044;-74
2023/04/15 03:03:04;;;;;;;18.20;3.97;;;12.20;80.10;;;;;;5036883;28;20032;-74
2023/04/15 03:05:30;;;;;;;17.13;3.58;;;12.20;80.50;;;;;;5054376;28;20033;-72
2023/04/15 03:07:56;;;;;;;14.90;3.88;;;12.10;81.10;;;;;;5055074;28;20033;-72
2023/04/15 03:10:22;;;;;;;16.65;3.72;;;12.10;82.00;;;;;;5054698;28;20025;-72
2023/04/15 03:12:48;;;;;;;16.10;4.10;;;12.10;82.50;;;;;;5054734;28;20049;-73
2023/04/15 03:15:14;;;;;;;23.98;4.22;;;12.00;84.30;;;;;;5054575;28;20483;-74
2023/04/15 03:17:40;;;;;;;21.85;3.80;;;12.10;84.40;;;;;;5054277;28;20044;-72
2023/04/15 03:20:06;;;;;;;21.95;3.90;;;12.10;84.50;;;;;;5054490;28;20029;-73
2023/04/15 03:22:32;;;;;;;19.65;3.50;;;12.20;85.40;;;;;;5054477;28;20037;-73
2023/04/15 03:24:58;;;;;;;15.40;3.35;;;12.20;85.60;;;;;;5054048;28;20030;-73
2023/04/15 03:27:24;;;;;;;16.92;3.47;;;12.20;85.80;;;;;;5054285;28;20044;-72
2023/04/15 03:29:50;;;;;;;16.30;3.40;;;12.20;86.30;;;;;;5054358;28;20100;-73
2023/04/15 03:32:16;;;;;;;22.45;4.18;;;12.30;87.00;;;;;;5054102;28;20045;-72
2023/04/15 03:34:42;;;;;;;19.15;4.72;;;12.30;87.10;;;;;;5054478;28;20040;-73
2023/04/15 03:37:08;;;;;;;14.38;3.67;;;12.30;87.50;;;;;;5054287;28;20047;-74
2023/04/15 03:39:34;;;;;;;17.08;3.10;;;12.40;87.70;;;;;;5035857;28;20458;-72
2023/04/15 03:42:00;;;;;;;19.40;3.53;;;12.40;87.60;;;;;;5061974;28;20037;-73
2023/04/15 03:44:26;;;;;;;14.98;2.95;;;12.40;88.10;;;;;;5054944;28;20479;-74
2023/04/15 03:46:52;;;;;;;19.08;3.60;;;12.40;88.20;;;;;;5053802;28;20029;-73
2023/04/15 03:49:19;;;;;;;13.35;2.92;;;12.40;88.20;;;;;;5053884;28;20049;-73
2023/04/15 03:51:45;;;;;;;11.57;2.90;;;12.50;88.30;;;;;;5053814;28;20049;-73
2023/04/15 03:54:14;;;;;;;15.10;3.20;;;12.50;88.70;;;;;;5035627;28;20076;-73
2023/04/15 03:56:40;;;;;;;14.32;3.17;;;12.50;88.70;;;;;;5053788;28;20037;-73
2023/04/15 03:59:05;;;;;;;14.57;3.53;;;12.40;88.90;;;;;;5053757;28;20037;-73
2023/04/15 04:01:31;;;;;;;14.70;3.38;;;12.40;88.80;;;;;;5053563;28;20446;-72
2023/04/15 04:03:57;;;;;;;10.60;2.47;;;12.40;89.20;;;;;;5053409;28;20037;-73
2023/04/15 04:06:22;;;;;;;14.35;3.55;;;12.40;89.50;;;;;;5053687;28;20061;-72
2023/04/15 04:08:48;;;;;;;17.30;3.33;;;12.50;89.90;;;;;;5053410;28;20040;-74
2023/04/15 04:11:14;;;;;;;13.82;3.20;;;12.50;90.00;;;;;;5053318;28;20033;-73
2023/04/15 04:13:39;;;;;;;9.88;2.60;;;12.50;89.80;;;;;;5053374;28;20045;-73
2023/04/15 04:16:05;;;;;;;12.60;2.70;;;12.50;90.00;;;;;;5052709;28;20095;-73
2023/04/15 04:18:31;;;;;;;10.68;3.13;;;12.50;90.10;;;;;;5053177;28;20071;-72
2023/04/15 04:20:57;;;;;;;13.90;3.25;;;12.50;90.10;;;;;;5053477;28;20036;-73
2023/04/15 04:23:23;;;;;;;14.80;2.90;;;12.40;90.20;;;;;;5052891;28;20402;-73
2023/04/15 04:25:49;;;;;;;9.98;2.28;;;12.40;90.40;;;;;;5053658;28;20028;-73
2023/04/15 04:28:14;;;;;;;14.75;2.63;;;12.40;90.50;;;;;;5035409;28;20048;-73
2023/04/15 04:30:40;;;;;;;13.48;2.80;;;12.40;90.50;;;;;;5052774;28;20029;-74
2023/04/15 04:33:06;;;;;;;13.20;2.90;;;12.40;90.60;;;;;;5053128;28;20406;-74
2023/04/15 04:35:33;;;;;;;16.15;3.08;;;12.40;90.70;;;;;;5053022;28;20491;-73
2023/04/15 04:38:00;;;;;;;15.77;2.63;;;12.40;90.80;;;;;;5052633;28;20037;-73
2023/04/15 04:40:26;;;;;;;14.23;2.90;;;12.30;90.90;;;;;;5053194;28;20395;-73
2023/04/15 04:42:53;;;;;;;14.30;3.03;;;12.30;90.90;;;;;;5052862;28;20342;-74
2023/04/15 04:45:19;;;;;;;10.02;2.90;;;12.30;90.90;;;;;;5053160;28;20025;-74
2023/04/15 04:47:46;;;;;;;13.85;3.05;;;12.20;91.00;;;;;;5052618;28;20482;-72
2023/04/15 04:50:12;;;;;;;13.82;3.13;;;12.20;91.10;;;;;;5052492;28;20029;-73
2023/04/15 04:52:37;;;;;;;10.95;2.72;;;12.20;91.00;;;;;;5052589;28;20148;-73
2023/04/15 04:55:03;;;;;;;9.45;2.63;;;12.10;91.00;;;;;;5052519;28;20059;-72
2023/04/15 04:57:29;;;;;;;10.52;2.95;;;12.00;90.90;;;;;;5052682;28;20037;-73
2023/04/15 04:59:55;;;;;;;11.10;2.70;;;12.00;90.90;;;;;;5052470;28;20120;-73
2023/04/15 05:02:21;;;;;;;9.70;3.10;;;12.00;90.70;;;;;;5034550;28;20056;-73
2023/04/15 05:04:47;;;;;;;10.90;2.80;;;11.90;90.90;;;;;;5034313;28;20059;-72
2023/04/15 05:07:13;;;;;;;11.65;2.97;;;11.90;90.90;;;;;;5052223;28;20037;-72
2023/04/15 05:09:39;;;;;;;10.25;3.08;;;11.90;90.90;;;;;;5052632;28;20367;-72
2023/04/15 05:12:05;;;;;;;10.80;2.90;;;12.00;91.00;;;;;;5034107;28;20175;-73
2023/04/15 05:14:31;;;;;;;15.50;3.03;;;11.90;90.80;;;;;;5052285;28;20029;-73
2023/04/15 05:16:56;;;;;;;10.90;2.72;;;11.90;90.90;;;;;;5052328;28;20037;-74
2023/04/15 05:19:22;;;;;;;13.77;3.42;;;11.90;91.00;;;;;;5052034;28;20040;-73
2023/04/15 05:21:48;;;;;;;9.02;2.50;;;11.90;91.10;;;;;;5051928;28;20044;-73
2023/04/15 05:24:14;;;;;;;13.25;3.08;;;11.90;91.20;;;;;;5052073;28;20044;-72
2023/04/15 05:26:39;;;;;;;13.98;3.13;;;11.90;91.30;;;;;;5052334;28;20094;-73
2023/04/15 05:29:05;;;;;;;11.68;3.38;;;12.00;91.50;;;;;;5051716;28;20033;-74
2023/04/15 05:31:31;;;;;;;12.20;3.53;;;11.90;91.40;;;;;;5051960;28;20040;-74
2023/04/15 05:33:57;;;;;;;15.15;3.40;;;11.90;91.70;;;;;;5034214;28;20041;-72
2023/04/15 05:36:23;;;;;;;14.88;3.65;;;11.90;91.70;;;;;;5033545;28;20040;-73
2023/04/15 05:38:48;;;;;;;12.10;3.10;;;11.90;91.80;;;;;;5051139;28;20356;-71
2023/04/15 05:41:14;;;;;;;15.50;3.30;;;11.90;91.80;;;;;;5051055;28;20029;-70
2023/04/15 05:43:40;;;;;;;11.43;3.22;;;11.90;92.00;;;;;;5051633;28;20452;-73
2023/04/15 05:46:07;;;;;;;15.90;4.07;;;11.90;92.30;;;;;;5051601;28;20146;-73
2023/04/15 05:48:33;;;;;;;10.63;3.10;;;11.90;92.40;;;;;;5051898;28;20414;-70
2023/04/15 05:50:59;;;;;;;9.80;2.90;;;11.90;92.70;;;;;;5051733;28;20041;-71
2023/04/15 05:53:25;;;;;;;9.48;3.17;;;11.90;93.00;;;;;;5051815;28;20044;-70
2023/04/15 05:55:51;;;;;;;8.75;2.65;;;11.90;93.20;;;;;;5051893;28;20029;-71
2023/04/15 05:58:17;;;;;;;12.40;2.85;;;11.90;93.20;;;;;;5051656;28;20040;-71
2023/04/15 06:00:43;;;;;;;8.27;2.75;;;11.80;93.30;;;;;;5051815;28;20029;-71
2023/04/15 06:03:10;;;;;;;12.02;2.90;;;11.80;93.40;;;;;;5051724;28;20044;-70
2023/04/15 06:05:36;;;;;;;8.48;2.47;;;11.70;93.40;;;;;;5051402;28;20493;-70
2023/04/15 06:08:01;;;;;;;7.38;2.50;;;11.60;93.60;;;;;;5051594;28;20040;-71
2023/04/15 06:10:27;;;;;;;9.15;2.60;;;11.60;94.00;;;;;;5051951;28;20033;-70
2023/04/15 06:12:53;;;;;;;9.20;2.35;;;11.50;93.70;;;;;;5051861;28;20417;-71
2023/04/15 06:15:18;;;;;;;6.40;2.15;;;11.50;93.90;;;;;;5033751;28;20508;-71
2023/04/15 06:17:44;;;;;;;8.95;2.40;;;11.50;93.70;;;;;;5051558;28;20066;-69
2023/04/15 06:20:11;;;;;;;7.85;2.70;;;11.40;93.90;;;;;;5051199;28;20022;-69
2023/04/15 06:22:38;;;;;;;7.13;2.95;;;11.40;93.70;;;;;;5051746;28;20113;-70
2023/04/15 06:25:04;;;;;;;9.38;2.55;;;11.40;94.00;;;;;;5051461;28;20029;-70
2023/04/15 06:27:30;;;;;;;8.32;2.38;;;11.40;93.70;;;;;;5050949;28;20036;-70
2023/04/15 06:29:55;;;;;;;6.65;2.25;;;11.50;94.00;;;;;;5033137;28;20420;-70
2023/04/15 06:32:21;;;;;;;8.40;2.38;;;11.50;93.90;;;;;;5050971;28;20049;-70
2023/04/15 06:34:46;;;;;;;6.65;2.33;;;11.50;93.70;;;;;;5051336;28;20022;-70
2023/04/15 06:37:15;;;;;;;14.90;2.90;;;11.50;94.00;;;;;;5051382;28;20037;-71
2023/04/15 06:39:41;;;;;;;9.40;3.17;;;11.40;93.90;;;;;;5051657;28;20047;-71
2023/04/15 06:42:08;;;;;;;9.63;2.47;;;11.40;94.40;;;;;;5054886;28;20123;-71
2023/04/15 06:44:34;;;;;;;6.82;2.35;;;11.30;94.40;;;;;;5054542;28;20402;-71
2023/04/15 06:47:00;;;;;;;8.18;2.22;;;11.40;94.20;;;;;;5054843;28;20021;-71
2023/04/15 06:49:25;;;;;;;6.78;2.22;;;11.30;94.00;;;;;;5055005;28;20037;-70
2023/04/15 06:51:51;;;;;;;7.78;2.40;;;11.40;94.10;;;;;;5054787;28;20505;-71
2023/04/15 06:54:17;;;;;;;5.63;2.00;;;11.30;94.00;;;;;;5054967;28;20037;-71
2023/04/15 06:56:43;;;;;;;6.10;2.30;;;11.30;93.90;;;;;;5054721;28;20398;-70
2023/04/15 06:59:09;;;;;;;7.70;2.42;;;11.30;93.90;;;;;;5054949;28;20443;-70
2023/04/15 07:01:34;;;;;;;10.70;3.45;;;11.30;94.10;;;;;;5054742;28;20029;-70
2023/04/15 07:04:00;;;;;;;9.18;2.53;;;11.40;94.20;;;;;;5054491;28;20494;-72
2023/04/15 07:06:26;;;;;;;5.63;2.17;;;11.40;94.20;;;;;;5054667;28;20033;-70
2023/04/15 07:08:53;;;;;;;5.20;1.88;;;11.40;94.40;;;;;;5055014;28;20040;-70
2023/04/15 07:11:19;;;;;;;8.85;2.58;;;11.40;94.40;;;;;;5036857;28;20419;-70
2023/04/15 07:13:45;;;;;;;6.22;2.38;;;11.40;94.60;;;;;;5054493;28;20417;-71
2023/04/15 07:16:11;;;;;;;8.60;2.53;;;11.50;94.80;;;;;;5054517;28;20116;-69
2023/04/15 07:18:37;;;;;;;4.93;2.22;;;11.50;94.60;;;;;;5054379;28;20037;-71
2023/04/15 07:21:03;;;;;;;9.68;2.35;;;11.50;94.70;;;;;;5054144;28;20029;-70
2023/04/15 07:23:29;;;;;;;8.85;2.45;;;11.60;95.00;;;;;;5054507;28;20449;-71
2023/04/15 07:25:55;;;;;;;9.35;2.53;;;11.60;94.70;;;;;;5054389;28;20121;-71
2023/04/15 07:28:21;;;;;;;7.40;2.25;;;11.50;94.90;;;;;;5054066;28;20109;-72
2023/04/15 07:30:47;;;;;;;9.18;2.40;;;11.40;94.70;;;;;;5053910;28;20472;-70
2023/04/15 07:33:13;;;;;;;10.10;2.75;;;11.40;94.70;;;;;;5054177;28;20517;-71
2023/04/15 07:35:39;;;;;;;10.13;2.60;;;11.30;94.50;;;;;;5054116;28;20118;-72
2023/04/15 07:38:04;;;;;;;8.60;2.70;;;11.30;94.40;;;;;;5054157;28;20033;-71
2023/04/15 07:40:30;;;;;;;8.52;2.67;;;11.30;94.50;;;;;;5054036;28;20037;-71
2023/04/15 07:42:57;;;;;;;8.07;2.55;;;11.40;94.60;;;;;;5054261;28;20037;-71
2023/04/15 07:45:23;;;;;;;5.60;2.40;;;11.30;94.50;;;;;;5053788;28;20033;-70
2023/04/15 07:47:50;;;;;;;8.63;2.92;;;11.30;94.70;;;;;;5054168;28;20091;-70
2023/04/15 07:50:16;;;;;;;8.75;3.13;;;11.30;94.60;;;;;;5054268;28;20037;-71
2023/04/15 07:52:42;;;;;;;10.52;3.55;;;11.30;94.50;;;;;;5053001;28;20494;-71
2023/04/15 07:55:09;;;;;;;9.52;3.25;;;11.50;94.50;;;;;;5053843;28;20079;-71
2023/04/15 07:57:36;;;;;;;6.03;2.60;;;11.50;94.60;;;;;;5053505;28;20041;-70
2023/04/15 08:00:06;;;;;;;6.85;2.58;;;11.50;94.50;;;;;;5053740;28;20029;-71
2023/04/15 08:02:32;;;;;;;7.32;3.10;;;11.50;94.10;;;;;;5053667;28;20490;-71
2023/04/15 08:04:58;;;;;;;8.55;3.15;;;11.60;94.20;;;;;;5053826;28;20065;-72
2023/04/15 08:07:25;;;;;;;8.48;3.05;;;11.60;94.30;;;;;;5053769;28;20018;-72
2023/04/15 08:09:51;;;;;;;6.40;2.40;;;11.60;94.10;;;;;;5053692;28;20040;-72
2023/04/15 08:12:16;;;;;;;7.93;2.50;;;11.60;94.10;;;;;;5053493;28;20053;-71
2023/04/15 08:14:42;;;;;;;8.57;2.85;;;11.60;94.00;;;;;;5053428;28;20502;-73
2023/04/15 08:17:08;;;;;;;6.90;2.17;;;11.70;93.80;;;;;;5053534;28;20114;-72
2023/04/15 08:19:34;;;;;;;7.07;2.33;;;11.70;93.80;;;;;;5053297;28;20033;-71
2023/04/15 08:22:00;;;;;;;7.10;2.30;;;11.90;93.60;;;;;;5053324;28;20025;-72
2023/04/15 08:24:26;;;;;;;8.30;2.50;;;11.90;93.70;;;;;;5053313;28;20029;-71
2023/04/15 08:26:52;;;;;;;10.73;3.22;;;11.90;93.70;;;;;;5053187;28;20041;-72
2023/04/15 08:29:17;;;;;;;7.72;2.75;;;12.00;93.40;;;;;;5053241;28;20041;-71
2023/04/15 08:31:44;;;;;;;11.00;3.40;;;12.00;93.40;;;;;;5053207;28;20204;-72
2023/04/15 08:34:14;;;;;;;8.27;3.22;;;11.90;93.60;;;;;;5052959;28;20040;-71
2023/04/15 08:36:41;;;;;;;8.60;2.63;;;12.00;93.90;;;;;;5052799;28;20449;-71
2023/04/15 08:39:07;;;;;;;9.00;2.60;;;11.90;93.80;;;;;;5052871;28;20453;-72
2023/04/15 08:41:45;;;;;;;6.38;2.33;;;11.80;94.20;;;;;;5053114;28;20135;-71
2023/04/15 08:44:11;;;;;;;11.20;3.20;;;11.90;94.60;;;;;;5053148;28;20159;-71
2023/04/15 08:46:38;;;;;;;9.40;3.15;;;11.90;94.20;;;;;;5052770;28;20488;-71
2023/04/15 08:49:04;;;;;;;7.95;2.60;;;12.00;94.40;;;;;;5052609;28;20040;-72
2023/04/15 08:51:31;;;;;;;10.10;2.80;;;12.00;94.00;;;;;;5052790;28;20052;-71
2023/04/15 08:53:57;;;;;;;6.97;2.83;;;12.10;94.20;;;;;;5052841;28;20091;-71
2023/04/15 08:56:25;;;;;;;7.78;2.67;;;12.10;94.20;;;;;;5034923;28;20035;-72
2023/04/15 08:58:52;;;;;;;10.23;3.75;;;12.10;94.20;;;;;;5052640;28;20049;-73
2023/04/15 09:01:18;;;;;;;11.20;6.40;;;12.20;94.30;;;;;;5052679;28;20025;-74
2023/04/15 09:03:44;;;;;;;13.73;9.45;;;12.20;94.20;;;;;;5052537;28;20033;-72
2023/04/15 09:06:11;;;;;;;19.60;14.68;;;12.20;94.20;;;;;;5052636;28;20506;-72
2023/04/15 09:08:36;;;;;;;18.95;17.15;;;12.20;94.20;;;;;;5052620;28;20475;-72
2023/04/15 09:11:02;;;;;;;28.05;22.08;;;12.10;94.40;;;;;;5052438;28;20152;-72
2023/04/15 09:13:29;;;;;;;26.60;23.40;;;12.10;94.50;;;;;;5052397;28;20053;-71
2023/04/15 09:15:56;;;;;;;25.80;20.05;;;12.10;94.80;;;;;;5052600;28;20057;-71
2023/04/15 09:18:33;;;;;;;20.13;15.77;;;12.30;94.80;;;;;;5052327;28;20116;-71
2023/04/15 09:21:12;;;;;;;18.98;13.75;;;12.50;95.00;;;;;;5052300;28;20112;-71
2023/04/15 09:23:40;;;;;;;16.05;11.95;;;13.00;94.40;;;;;;5052617;28;20025;-72
2023/04/15 09:26:07;;;;;;;13.23;9.82;;;13.30;93.60;;;;;;5052491;28;20037;-71
2023/04/15 09:28:39;;;;;;;14.00;8.75;;;13.60;93.10;;;;;;5052445;28;20029;-72
2023/04/15 09:31:05;;;;;;;10.93;6.90;;;13.60;92.60;;;;;;5052132;28;20075;-71
2023/04/15 09:33:31;;;;;;;13.13;6.35;;;13.50;92.60;;;;;;5052119;28;20069;-70
2023/04/15 09:36:03;;;;;;;13.38;6.88;;;13.40;92.90;;;;;;5052106;28;20029;-70
2023/04/15 09:38:30;;;;;;;12.13;5.40;;;13.40;93.30;;;;;;5052102;28;20056;-72
2023/04/15 09:40:57;;;;;;;12.52;5.13;;;13.50;93.50;;;;;;5052231;28;20079;-72
2023/04/15 09:43:39;;;;;;;12.10;4.72;;;13.50;93.60;;;;;;5034273;28;20041;-71
2023/04/15 09:46:05;;;;;;;13.13;4.75;;;13.60;93.60;;;;;;5051994;28;20037;-72
2023/04/15 09:48:31;;;;;;;10.13;4.82;;;13.60;93.50;;;;;;5052041;28;20462;-71
2023/04/15 09:50:57;;;;;;;13.65;4.00;;;13.70;93.40;;;;;;5051804;28;20068;-72
2023/04/15 09:53:24;;;;;;;12.77;4.60;;;13.80;93.40;;;;;;5033963;28;20080;-72
2023/04/15 09:55:57;;;;;;;18.52;7.20;;;14.10;93.10;;;;;;5052036;28;20087;-72
2023/04/15 09:58:27;;;;;;;21.23;9.07;;;14.30;92.70;;;;;;5051851;28;20060;-70
2023/04/15 10:00:55;;;;;;;21.55;5.53;;;14.60;92.40;;;;;;5051792;28;20073;-71
2023/04/15 10:03:22;;;;;;;13.50;3.03;;;14.60;92.40;;;;;;5052035;28;20041;-71
2023/04/15 10:05:50;;;;;;;16.70;2.97;;;14.50;92.30;;;;;;5051903;28;20040;-72
2023/04/15 10:08:18;;;;;;;13.07;3.67;;;14.40;92.40;;;;;;5051726;28;20033;-70
2023/04/15 10:10:46;;;;;;;15.10;4.00;;;14.40;92.50;;;;;;5033897;28;20111;-74
2023/04/15 10:13:17;;;;;;;15.23;4.00;;;14.40;92.70;;;;;;5051584;28;20144;-73
2023/04/15 10:15:47;;;;;;;14.18;3.47;;;14.50;92.60;;;;;;5053874;28;20128;-71
2023/04/15 10:18:16;;;;;;;12.82;3.60;;;14.70;92.50;;;;;;5055518;28;20040;-70
2023/04/15 10:20:42;;;;;;;11.75;3.63;;;14.80;92.60;;;;;;5055554;28;20436;-72
2023/04/15 10:23:09;;;;;;;19.85;3.60;;;14.80;92.30;;;;;;5055610;28;20156;-72
2023/04/15 10:25:36;;;;;;;15.32;2.95;;;15.00;92.30;;;;;;5055368;28;20086;-71
2023/04/15 10:28:02;;;;;;;14.52;3.00;;;15.30;92.00;;;;;;5055393;28;20398;-71
2023/04/15 10:30:29;;;;;;;13.55;2.92;;;15.60;91.70;;;;;;5055356;28;20033;-72
2023/04/15 10:32:56;;;;;;;13.35;2.72;;;15.60;91.60;;;;;;5055268;28;20099;-71
2023/04/15 10:35:22;;;;;;;13.02;2.70;;;15.50;91.80;;;;;;5055456;28;20112;-73
2023/04/15 10:37:48;;;;;;;14.48;3.85;;;15.30;91.80;;;;;;5037396;28;20498;-72
2023/04/15 10:40:30;;;;;;;13.32;3.95;;;15.00;91.80;;;;;;5055063;28;20128;-71
2023/04/15 10:42:58;;;;;;;10.00;3.33;;;14.80;92.20;;;;;;5054980;28;20087;-71
2023/04/15 10:45:32;;;;;;;10.45;3.35;;;14.70;92.20;;;;;;5055602;28;20083;-71
2023/04/15 10:48:01;;;;;;;12.50;3.63;;;14.50;92.20;;;;;;5055372;28;20084;-70
2023/04/15 10:50:31;;;;;;;13.52;3.50;;;14.50;92.50;;;;;;5055329;28;20028;-71
2023/04/15 10:52:57;;;;;;;15.23;3.63;;;14.30;92.40;;;;;;5055081;28;20091;-71
2023/04/15 10:55:25;;;;;;;15.25;3.30;;;14.30;92.40;;;;;;5055084;28;20043;-71
2023/04/15 10:57:59;;;;;;;33.15;18.20;;;14.30;92.60;;;;;;5055188;28;20044;-72
2023/04/15 11:00:28;;;;;;;16.17;3.90;;;14.40;92.60;;;;;;5036716;28;20037;-70
2023/04/15 11:03:08;;;;;;;17.98;3.78;;;14.50;92.50;;;;;;5055162;28;20033;-71
2023/04/15 20:38:26;;;;;;;20.83;5.30;;;13.70;93.80;;;;;;5030074;23;20114;-72
2023/04/15 20:40:52;;;;;;;17.95;4.45;;;13.80;94.20;;;;;;5053224;28;20041;-71
2023/04/15 20:43:17;;;;;;;12.35;3.75;;;13.70;93.80;;;;;;5053274;28;20040;-72
2023/04/15 20:45:43;;;;;;;11.82;3.38;;;13.60;93.70;;;;;;5053074;28;20490;-72
2023/04/15 20:48:09;;;;;;;10.43;3.70;;;13.60;93.70;;;;;;5053166;28;20453;-71
2023/04/15 20:50:35;;;;;;;17.23;3.28;;;13.50;93.60;;;;;;5053296;28;20033;-71
2023/04/15 20:53:01;;;;;;;10.98;3.10;;;13.50;93.50;;;;;;5053211;28;20061;-72
2023/04/15 20:55:27;;;;;;;10.23;2.83;;;13.50;93.50;;;;;;5052733;28;20108;-71
2023/04/15 20:58:11;;;;;;;8.95;2.90;;;13.50;93.40;;;;;;5054080;28;20526;-71
2023/04/15 21:00:38;;;;;;;8.68;3.10;;;13.40;93.30;;;;;;5052735;28;20049;-71
2023/04/15 21:03:04;;;;;;;6.88;2.53;;;13.40;93.30;;;;;;5052941;28;20045;-70
2023/04/15 21:05:30;;;;;;;6.45;2.40;;;13.30;93.20;;;;;;5052688;28;20029;-72
2023/04/15 21:07:55;;;;;;;7.05;2.55;;;13.20;93.60;;;;;;5052768;28;20474;-72
2023/04/15 21:10:21;;;;;;;9.00;2.78;;;13.20;93.40;;;;;;5052928;28;20399;-72
2023/04/15 21:12:47;;;;;;;8.52;2.78;;;13.20;93.40;;;;;;5053040;28;20052;-72
2023/04/15 21:15:12;;;;;;;8.32;3.00;;;13.20;93.40;;;;;;5052911;28;20039;-70
2023/04/15 21:17:38;;;;;;;11.43;2.92;;;13.20;93.40;;;;;;5052628;28;20033;-71
2023/04/15 21:20:05;;;;;;;11.63;3.20;;;13.20;93.50;;;;;;5052608;28;20079;-72
2023/04/15 21:22:30;;;;;;;12.23;3.40;;;13.20;93.50;;;;;;5052707;28;20109;-72
2023/04/15 21:24:56;;;;;;;12.68;3.83;;;13.20;93.40;;;;;;5052556;28;20533;-71
2023/04/15 21:27:22;;;;;;;17.17;4.50;;;13.10;93.50;;;;;;5052753;28;20390;-72
2023/04/15 21:29:48;;;;;;;13.95;4.35;;;13.20;93.70;;;;;;5052632;28;20383;-72
2023/04/15 21:32:13;;;;;;;16.88;5.10;;;13.20;93.60;;;;;;5052366;28;20422;-70
2023/04/15 21:34:39;;;;;;;19.83;7.25;;;13.20;93.60;;;;;;5052450;28;20112;-72
2023/04/15 21:37:04;;;;;;;13.60;5.20;;;13.20;93.70;;;;;;5052295;28;20052;-70
2023/04/15 21:39:31;;;;;;;19.60;4.50;;;13.20;93.90;;;;;;5052221;28;20080;-71
2023/04/15 21:41:58;;;;;;;16.80;4.10;;;13.20;94.00;;;;;;5052272;28;20037;-72
2023/04/15 21:44:23;;;;;;;14.07;3.65;;;13.20;93.90;;;;;;5052484;28;20471;-71
2023/04/15 21:46:50;;;;;;;18.13;4.75;;;13.20;93.90;;;;;;5052278;28;20033;-71
2023/04/15 21:49:16;;;;;;;11.98;3.85;;;13.20;93.90;;;;;;5052209;28;20078;-71
2023/04/15 21:51:42;;;;;;;13.90;3.58;;;13.20;93.90;;;;;;5052227;28;20104;-71
2023/04/15 21:54:07;;;;;;;12.43;2.80;;;13.20;93.80;;;;;;5067568;28;20037;-70
2023/04/15 21:56:33;;;;;;;8.65;3.40;;;13.10;93.60;;;;;;5052151;28;20040;-70
2023/04/15 21:58:59;;;;;;;9.25;3.22;;;13.10;93.80;;;;;;5052165;28;20025;-71
2023/04/15 22:01:25;;;;;;;7.18;2.40;;;13.10;93.70;;;;;;5052143;28;20068;-71
2023/04/15 22:03:51;;;;;;;8.85;2.55;;;13.10;93.70;;;;;;5051800;28;20033;-70
2023/04/15 22:06:17;;;;;;;11.65;2.67;;;13.10;93.80;;;;;;5051977;28;20043;-72
2023/04/15 22:08:42;;;;;;;8.63;2.72;;;13.10;93.80;;;;;;5052284;28;20041;-70